Nichols, Wisconsin
Current Conditions -  °F | °C
As of 10:55 AM on Saturday 22 Nov 2014 (Local Time) from KCLI Reporting Station
Haze Haze  
Wind Chill: -2°   Ceiling: 500
Heat Index:   Visibility: 4mi
Dew Point:   Wind: 7mph
Humidity: 93%   Direction: 210°SSW
Pressure: 29.82"   Gusts: NA
Location:  44.56°N, 88.46°W
Report Text: KCLI 221655Z AUTO 21006KT 4SM BR OVC005 01/00 A2982 RMK AO2
Loading
Personal Weather Stations






























Interactive Weather Map New forecast layout! Learn more

10-Day Weather Forecast

Advertisements
Track Severe Weather on mobile